| time (UTC) | temp F | wind direction | speed knots | gust knots | rain 1hr in | rain 24hr in | rain mn in | humidity % | barometer mb |
| 20260506201533 | 58 | 183 | 0.9 | 3.5 | 0.00 | 0.07 | 0.07 | 91 | 1006.8 |
| 20260506200108 | 58 | 184 | 0.9 | 4.3 | 0.00 | 0.07 | 0.07 | 91 | 1006.9 |
| 20260506194539 | 58 | 188 | 0.9 | 2.6 | 0.00 | 0.07 | 0.07 | 91 | 1006.9 |
| 20260506193040 | 58 | 263 | 0.9 | 4.3 | 0.00 | 0.07 | 0.07 | 91 | 1007.1 |
| 20260506191538 | 58 | 159 | 0.9 | 3.5 | 0.02 | 0.07 | 0.07 | 90 | 1007.2 |
| 20260506190036 | 58 | 0 | 0.9 | 3.5 | 0.03 | 0.07 | 0.07 | 91 | 1007.4 |
| 20260506184535 | 58 | 202 | 1.7 | 6.1 | 0.04 | 0.07 | 0.07 | 90 | 1007.7 |
| 20260506183041 | 57 | 0 | 0.0 | 4.3 | 0.05 | 0.07 | 0.07 | 90 | 1007.7 |
| 20260506181542 | 57 | 181 | 0.9 | 3.5 | 0.04 | 0.05 | 0.05 | 90 | 1008.0 |
| 20260506180048 | 57 | 175 | 0.0 | 4.3 | 0.03 | 0.03 | 0.03 | 89 | 1008.0 |
| 20260506174538 | 58 | 0 | 0.0 | 3.5 | 0.03 | 0.03 | 0.03 | 89 | 1008.0 |
| 20260506173037 | 58 | 136 | 0.0 | 4.3 | 0.02 | 0.02 | 0.02 | 89 | 1008.2 |
| 20260506171547 | 58 | 172 | 0.0 | 4.3 | 0.01 | 0.01 | 0.01 | 88 | 1008.7 |
| 20260506170042 | 58 | 191 | 0.9 | 4.3 | 0.00 | 0.00 | 0.00 | 87 | 1009.1 |
| 20260506164539 | 59 | 165 | 0.9 | 3.5 | 0.00 | 0.00 | 0.00 | 85 | 1009.2 |
| 20260506163046 | 61 | 192 | 0.9 | 3.5 | 0.00 | 0.00 | 0.00 | 82 | 1009.0 |
| 20260506161549 | 62 | 107 | 0.9 | 4.3 | 0.00 | 0.00 | 0.00 | 80 | 1009.2 |
| 20260506160034 | 63 | 0 | 0.9 | 4.3 | 0.00 | 0.00 | 0.00 | 79 | 1009.4 |
| 20260506154544 | 63 | 207 | 0.9 | 4.3 | 0.00 | 0.00 | 0.00 | 80 | 1009.4 |
| 20260506153043 | 63 | 184 | 1.7 | 5.2 | 0.00 | 0.00 | 0.00 | 78 | 1009.8 |
| 20260506151540 | 63 | 175 | 1.7 | 6.1 | 0.00 | 0.00 | 0.00 | 79 | 1009.4 |
| 20260506150038 | 63 | 175 | 1.7 | 4.3 | 0.00 | 0.00 | 0.00 | 78 | 1009.4 |
| 20260506144538 | 64 | 212 | 2.6 | 7.0 | 0.00 | 0.00 | 0.00 | 77 | 1009.3 |
| 20260506143036 | 64 | 201 | 1.7 | 6.1 | 0.00 | 0.00 | 0.00 | 77 | 1009.5 |
| 20260506141539 | 65 | 207 | 1.7 | 6.1 | 0.00 | 0.00 | 0.00 | 77 | 1009.5 |
| 20260506140045 | 63 | 196 | 2.6 | 5.2 | 0.00 | 0.00 | 0.00 | 78 | 1009.6 |
| 20260506134606 | 64 | 186 | 1.7 | 7.0 | 0.00 | 0.00 | 0.00 | 80 | 1009.6 |
| 20260506133036 | 63 | 0 | 1.7 | 5.2 | 0.00 | 0.00 | 0.00 | 81 | 1009.3 |
| 20260506131533 | 61 | 194 | 0.9 | 5.2 | 0.00 | 0.00 | 0.00 | 82 | 1009.5 |
| 20260506130041 | 61 | 182 | 1.7 | 4.3 | 0.00 | 0.00 | 0.00 | 82 | 1009.6 |
| 20260506124540 | 61 | 206 | 1.7 | 4.3 | 0.00 | 0.00 | 0.00 | 83 | 1009.6 |
| 20260506123044 | 61 | 30 | 0.9 | 4.3 | 0.00 | 0.00 | 0.00 | 84 | 1010.0 |
| 20260506121538 | 60 | 207 | 0.9 | 5.2 | 0.00 | 0.00 | 0.00 | 85 | 1009.8 |
| 20260506120035 | 59 | 54 | 1.7 | 7.0 | 0.00 | 0.00 | 0.00 | 86 | 1009.9 |
| 20260506114543 | 58 | 0 | 0.9 | 3.5 | 0.00 | 0.00 | 0.00 | 87 | 1009.8 |
| 20260506113042 | 58 | 200 | 0.9 | 3.5 | 0.00 | 0.00 | 0.00 | 88 | 1009.7 |
| 20260506111539 | 56 | 148 | 0.9 | 2.6 | 0.00 | 0.00 | 0.00 | 88 | 1009.9 |
| 20260506110038 | 56 | 100 | 0.9 | 7.0 | 0.00 | 0.00 | 0.00 | 89 | 1010.1 |
| 20260506104533 | 56 | 157 | 0.9 | 3.5 | 0.00 | 0.00 | 0.00 | 89 | 1009.8 |
| 20260506103043 | 55 | 156 | 0.0 | 2.6 | 0.00 | 0.00 | 0.00 | 90 | 1009.9 |
| 20260506101541 | 53 | 103 | 0.0 | 0.9 | 0.00 | 0.00 | 0.00 | 89 | 1009.8 |
| 20260506100039 | 53 | 0 | 0.0 | 1.7 | 0.00 | 0.00 | 0.00 | 89 | 1009.9 |
| 20260506094539 | 54 | 0 | 0.0 | 2.6 | 0.00 | 0.00 | 0.00 | 88 | 1009.8 |
| 20260506093037 | 54 | 0 | 0.0 | 3.5 | 0.00 | 0.00 | 0.00 | 88 | 1009.8 |
| 20260506091534 | 55 | 179 | 0.0 | 2.6 | 0.00 | 0.00 | 0.00 | 87 | 1010.0 |
| 20260506090041 | 55 | 0 | 0.0 | 4.3 | 0.00 | 0.00 | 0.00 | 87 | 1009.8 |
| 20260506084541 | 55 | 0 | 0.0 | 2.6 | 0.00 | 0.00 | 0.00 | 87 | 1010.0 |
| 20260506083042 | 56 | 0 | 0.0 | 4.3 | 0.00 | 0.00 | 0.00 | 87 | 1010.1 |
| 20260506081547 | 56 | 171 | 0.0 | 4.3 | 0.00 | 0.00 | 0.00 | 87 | 1010.0 |
| 20260506073041 | 56 | 167 | 0.9 | 3.5 | 0.00 | 0.00 | 0.00 | 86 | 1010.2 |
| 20260506071543 | 56 | 163 | 0.0 | 4.3 | 0.00 | 0.00 | 0.00 | 85 | 1010.2 |
| 20260506061538 | 57 | 168 | 0.0 | 2.6 | 0.00 | 0.00 | 0.00 | 84 | 1010.0 |
| 20260506044540 | 60 | 159 | 0.0 | 3.5 | 0.00 | 0.00 | 0.00 | 79 | 1010.3 |
| 20260506043040 | 60 | 189 | 1.7 | 3.5 | 0.00 | 0.00 | 0.00 | 78 | 1010.3 |
| 20260506041540 | 60 | 165 | 0.9 | 4.3 | 0.00 | 0.00 | 0.00 | 77 | 1010.2 |
| 20260506040039 | 61 | 194 | 0.9 | 5.2 | 0.00 | 0.00 | 0.00 | 77 | 1010.4 |
| 20260506034534 | 61 | 0 | 0.9 | 3.5 | 0.00 | 0.00 | 0.00 | 76 | 1010.4 |
| 20260506033036 | 61 | 122 | 1.7 | 4.3 | 0.00 | 0.00 | 0.00 | 74 | 1010.3 |
| 20260506031542 | 61 | 192 | 1.7 | 3.5 | 0.00 | 0.00 | 0.00 | 73 | 1010.2 |
| 20260506030040 | 61 | 205 | 1.7 | 4.3 | 0.00 | 0.00 | 0.00 | 73 | 1010.4 |
| 20260506024548 | 61 | 165 | 0.9 | 3.5 | 0.00 | 0.00 | 0.00 | 72 | 1010.2 |
| 20260506023038 | 61 | 173 | 0.9 | 4.3 | 0.00 | 0.00 | 0.00 | 72 | 1010.2 |
| 20260506021533 | 62 | 150 | 0.9 | 7.0 | 0.00 | 0.00 | 0.00 | 71 | 1010.1 |
| 20260506020040 | 61 | 150 | 0.9 | 5.2 | 0.00 | 0.00 | 0.00 | 72 | 1010.2 |
| 20260506014541 | 61 | 171 | 0.9 | 4.3 | 0.00 | 0.00 | 0.00 | 71 | 1010.0 |
| 20260506013039 | 61 | 216 | 0.9 | 3.5 | 0.00 | 0.00 | 0.00 | 71 | 1009.9 |
| 20260506011601 | 62 | 163 | 0.9 | 4.3 | 0.00 | 0.00 | 0.00 | 71 | 1009.8 |
| 20260506010038 | 62 | 190 | 0.9 | 4.3 | 0.00 | 0.00 | 0.00 | 69 | 1009.6 |
| 20260506004542 | 62 | 173 | 1.7 | 4.3 | 0.00 | 0.00 | 0.00 | 69 | 1009.5 |
| 20260506003035 | 63 | 159 | 1.7 | 6.1 | 0.00 | 0.00 | 0.00 | 68 | 1009.3 |
| 20260506001543 | 63 | 177 | 1.7 | 5.2 | 0.00 | 0.00 | 0.00 | 67 | 1008.9 |
| 20260506000106 | 63 | 0 | 0.9 | 5.2 | 0.00 | 0.00 | 0.00 | 67 | 1008.9 |
| 20260505234545 | 63 | 170 | 2.6 | 7.0 | 0.00 | 0.00 | 0.00 | 67 | 1008.8 |
| 20260505233035 | 64 | 173 | 1.7 | 7.0 | 0.00 | 0.00 | 0.00 | 66 | 1008.7 |
| 20260505231537 | 65 | 185 | 3.5 | 7.8 | 0.00 | 0.00 | 0.00 | 65 | 1008.3 |
| 20260505230058 | 65 | 209 | 2.6 | 7.8 | 0.00 | 0.00 | 0.00 | 65 | 1008.1 |
| 20260505224542 | 66 | 186 | 1.7 | 6.1 | 0.00 | 0.00 | 0.00 | 64 | 1007.9 |
| 20260505223040 | 67 | 209 | 0.9 | 13.0 | 0.00 | 0.00 | 0.00 | 63 | 1008.2 |
| 20260505221539 | 67 | 187 | 1.7 | 4.3 | 0.00 | 0.00 | 0.00 | 65 | 1008.3 |
| 20260505220034 | 67 | 173 | 1.7 | 7.0 | 0.00 | 0.00 | 0.00 | 64 | 1008.2 |
| 20260505214533 | 67 | 163 | 1.7 | 5.2 | 0.00 | 0.00 | 0.00 | 64 | 1008.0 |
| 20260505213040 | 67 | 178 | 2.6 | 6.1 | 0.00 | 0.00 | 0.00 | 64 | 1008.1 |
| 20260505211542 | 68 | 123 | 2.6 | 7.8 | 0.00 | 0.00 | 0.00 | 63 | 1007.8 |
| 20260505210037 | 69 | 154 | 0.9 | 5.2 | 0.00 | 0.00 | 0.00 | 63 | 1008.1 |
| 20260505204547 | 69 | 239 | 0.9 | 6.1 | 0.00 | 0.00 | 0.00 | 61 | 1008.0 |
| 20260505203053 | 70 | 215 | 1.7 | 6.1 | 0.00 | 0.00 | 0.00 | 61 | 1007.8 |